sensor_id;sensor_type;location;lat;lon;timestamp;pressure;altitude;pressure_sealevel;temperature;humidity
46583;BME280;32309;48.858;8.252;2023-12-20T00:00:43;100478.13;;;4.80;100.00
46583;BME280;32309;48.858;8.252;2023-12-20T00:02:43;100470.44;;;4.79;100.00
46583;BME280;32309;48.858;8.252;2023-12-20T00:04:46;100463.66;;;4.76;100.00
46583;BME280;32309;48.858;8.252;2023-12-20T00:06:47;100458.53;;;4.76;100.00
46583;BME280;32309;48.858;8.252;2023-12-20T00:08:47;100472.28;;;4.75;100.00
46583;BME280;32309;48.858;8.252;2023-12-20T00:10:47;100458.63;;;4.73;100.00
46583;BME280;32309;48.858;8.252;2023-12-20T00:12:48;100469.78;;;4.72;100.00
46583;BME280;32309;48.858;8.252;2023-12-20T00:14:48;100470.63;;;4.73;100.00
46583;BME280;32309;48.858;8.252;2023-12-20T00:16:48;100469.78;;;4.72;100.00
46583;BME280;32309;48.858;8.252;2023-12-20T00:18:48;100462.19;;;4.69;100.00
46583;BME280;32309;48.858;8.252;2023-12-20T00:20:49;100463.91;;;4.69;100.00
46583;BME280;32309;48.858;8.252;2023-12-20T00:22:49;100475.84;;;4.70;100.00
46583;BME280;32309;48.858;8.252;2023-12-20T00:24:49;100465.56;;;4.70;100.00
46583;BME280;32309;48.858;8.252;2023-12-20T00:26:50;100468.13;;;4.70;100.00
46583;BME280;32309;48.858;8.252;2023-12-20T00:28:50;100470.72;;;4.70;100.00
46583;BME280;32309;48.858;8.252;2023-12-20T00:30:52;100465.56;;;4.70;100.00
46583;BME280;32309;48.858;8.252;2023-12-20T00:32:52;100463.06;;;4.68;100.00
46583;BME280;32309;48.858;8.252;2023-12-20T00:34:54;100463.06;;;4.68;100.00
46583;BME280;32309;48.858;8.252;2023-12-20T00:36:54;100461.38;;;4.67;100.00
46583;BME280;32309;48.858;8.252;2023-12-20T00:38:54;100471.63;;;4.67;100.00
46583;BME280;32309;48.858;8.252;2023-12-20T00:40:55;100463.09;;;4.66;100.00
46583;BME280;32309;48.858;8.252;2023-12-20T00:42:55;100468.28;;;4.65;100.00
46583;BME280;32309;48.858;8.252;2023-12-20T00:44:55;100479.44;;;4.64;100.00
46583;BME280;32309;48.858;8.252;2023-12-20T00:46:56;100482.84;;;4.64;100.00
46583;BME280;32309;48.858;8.252;2023-12-20T00:48:56;100481.97;;;4.65;100.00
46583;BME280;32309;48.858;8.252;2023-12-20T00:50:57;100482.81;;;4.66;100.00
46583;BME280;32309;48.858;8.252;2023-12-20T00:52:57;100484.53;;;4.65;100.00
46583;BME280;32309;48.858;8.252;2023-12-20T00:54:57;100489.66;;;4.65;100.00
46583;BME280;32309;48.858;8.252;2023-12-20T00:56:58;100496.53;;;4.65;100.00
46583;BME280;32309;48.858;8.252;2023-12-20T00:58:58;100494.84;;;4.64;100.00
46583;BME280;32309;48.858;8.252;2023-12-20T01:00:59;100491.44;;;4.63;100.00
46583;BME280;32309;48.858;8.252;2023-12-20T01:02:59;100493.16;;;4.63;100.00
46583;BME280;32309;48.858;8.252;2023-12-20T01:04:59;100491.50;;;4.62;100.00
46583;BME280;32309;48.858;8.252;2023-12-20T01:07:00;100488.03;;;4.63;100.00
46583;BME280;32309;48.858;8.252;2023-12-20T01:09:00;100493.16;;;4.63;100.00
46583;BME280;32309;48.858;8.252;2023-12-20T01:11:00;100486.31;;;4.63;100.00
46583;BME280;32309;48.858;8.252;2023-12-20T01:13:00;100487.16;;;4.64;100.00
46583;BME280;32309;48.858;8.252;2023-12-20T01:15:01;100480.31;;;4.63;100.00
46583;BME280;32309;48.858;8.252;2023-12-20T01:17:01;100468.34;;;4.63;100.00
46583;BME280;32309;48.858;8.252;2023-12-20T01:19:02;100462.28;;;4.66;100.00
46583;BME280;32309;48.858;8.252;2023-12-20T01:21:02;100460.53;;;4.66;100.00
46583;BME280;32309;48.858;8.252;2023-12-20T01:23:05;100472.50;;;4.68;100.00
46583;BME280;32309;48.858;8.252;2023-12-20T01:25:06;100470.00;;;4.64;100.00
46583;BME280;32309;48.858;8.252;2023-12-20T01:27:06;100470.84;;;4.65;100.00
46583;BME280;32309;48.858;8.252;2023-12-20T01:29:07;100476.00;;;4.65;100.00
46583;BME280;32309;48.858;8.252;2023-12-20T01:31:08;100469.13;;;4.65;100.00
46583;BME280;32309;48.858;8.252;2023-12-20T01:33:08;100453.78;;;4.64;100.00
46583;BME280;32309;48.858;8.252;2023-12-20T01:35:08;100453.78;;;4.64;100.00
46583;BME280;32309;48.858;8.252;2023-12-20T01:37:08;100457.22;;;4.63;100.00
46583;BME280;32309;48.858;8.252;2023-12-20T01:39:09;100459.78;;;4.63;100.00
46583;BME280;32309;48.858;8.252;2023-12-20T01:41:09;100455.56;;;4.62;100.00
46583;BME280;32309;48.858;8.252;2023-12-20T01:43:09;100465.78;;;4.63;100.00
46583;BME280;32309;48.858;8.252;2023-12-20T01:45:12;100455.50;;;4.63;100.00
46583;BME280;32309;48.858;8.252;2023-12-20T01:47:12;100464.91;;;4.63;100.00
46583;BME280;32309;48.858;8.252;2023-12-20T01:49:12;100475.19;;;4.63;100.00
46583;BME280;32309;48.858;8.252;2023-12-20T01:51:13;100468.41;;;4.62;100.00
46583;BME280;32309;48.858;8.252;2023-12-20T01:53:13;100466.59;;;4.64;100.00
46583;BME280;32309;48.858;8.252;2023-12-20T01:55:16;100462.31;;;4.64;100.00
46583;BME280;32309;48.858;8.252;2023-12-20T01:57:17;100470.00;;;4.64;100.00
46583;BME280;32309;48.858;8.252;2023-12-20T01:59:17;100460.66;;;4.63;100.00
46583;BME280;32309;48.858;8.252;2023-12-20T02:01:20;100461.41;;;4.65;100.00
46583;BME280;32309;48.858;8.252;2023-12-20T02:03:21;100458.03;;;4.65;100.00
46583;BME280;32309;48.858;8.252;2023-12-20T02:05:21;100466.50;;;4.67;100.00
46583;BME280;32309;48.858;8.252;2023-12-20T02:07:22;100457.97;;;4.66;100.00
46583;BME280;32309;48.858;8.252;2023-12-20T02:09:23;100464.78;;;4.68;100.00
46583;BME280;32309;48.858;8.252;2023-12-20T02:11:23;100471.63;;;4.67;100.00
46583;BME280;32309;48.858;8.252;2023-12-20T02:13:25;100460.50;;;4.68;100.00
46583;BME280;32309;48.858;8.252;2023-12-20T02:15:26;100455.34;;;4.68;100.00
46583;BME280;32309;48.858;8.252;2023-12-20T02:17:27;100461.38;;;4.67;100.00
46583;BME280;32309;48.858;8.252;2023-12-20T02:19:27;100463.91;;;4.69;100.00
46583;BME280;32309;48.858;8.252;2023-12-20T02:21:34;100461.34;;;4.69;100.00
46583;BME280;32309;48.858;8.252;2023-12-20T02:23:37;100467.31;;;4.69;100.00
46583;BME280;32309;48.858;8.252;2023-12-20T02:25:37;100465.56;;;4.70;100.00
46583;BME280;32309;48.858;8.252;2023-12-20T02:27:38;100460.44;;;4.70;100.00
46583;BME280;32309;48.858;8.252;2023-12-20T02:29:39;100463.00;;;4.70;100.00
46583;BME280;32309;48.858;8.252;2023-12-20T02:31:39;100450.16;;;4.70;100.00
46583;BME280;32309;48.858;8.252;2023-12-20T02:33:40;100460.44;;;4.70;100.00
46583;BME280;32309;48.858;8.252;2023-12-20T02:35:42;100463.88;;;4.70;100.00
46583;BME280;32309;48.858;8.252;2023-12-20T02:37:43;100459.59;;;4.69;100.00
46583;BME280;32309;48.858;8.252;2023-12-20T02:39:43;100448.47;;;4.70;100.00
46583;BME280;32309;48.858;8.252;2023-12-20T02:41:44;100455.28;;;4.71;100.00
46583;BME280;32309;48.858;8.252;2023-12-20T02:43:45;100458.69;;;4.72;100.00
46583;BME280;32309;48.858;8.252;2023-12-20T02:45:45;100457.78;;;4.73;100.00
46583;BME280;32309;48.858;8.252;2023-12-20T02:47:45;100468.91;;;4.73;100.00
46583;BME280;32309;48.858;8.252;2023-12-20T02:49:46;100476.59;;;4.73;100.00
46583;BME280;32309;48.858;8.252;2023-12-20T02:51:46;100477.41;;;4.75;100.00
46583;BME280;32309;48.858;8.252;2023-12-20T02:53:46;100469.72;;;4.75;100.00
46583;BME280;32309;48.858;8.252;2023-12-20T02:55:47;100473.97;;;4.75;100.00
46583;BME280;32309;48.858;8.252;2023-12-20T02:57:47;100474.84;;;4.75;100.00
46583;BME280;32309;48.858;8.252;2023-12-20T02:59:48;100490.25;;;4.75;100.00
46583;BME280;32309;48.858;8.252;2023-12-20T03:01:48;100479.06;;;4.76;100.00
46583;BME280;32309;48.858;8.252;2023-12-20T03:03:48;100488.50;;;4.76;100.00
46583;BME280;32309;48.858;8.252;2023-12-20T03:05:49;100491.06;;;4.76;100.00
46583;BME280;32309;48.858;8.252;2023-12-20T03:07:51;100489.34;;;4.76;100.00
46583;BME280;32309;48.858;8.252;2023-12-20T03:09:51;100497.91;;;4.77;100.00
46583;BME280;32309;48.858;8.252;2023-12-20T03:11:52;100493.66;;;4.76;100.00
46583;BME280;32309;48.858;8.252;2023-12-20T03:13:52;100506.47;;;4.76;100.00
46583;BME280;32309;48.858;8.252;2023-12-20T03:15:52;100520.16;;;4.76;100.00
46583;BME280;32309;48.858;8.252;2023-12-20T03:17:53;100503.91;;;4.76;100.00
46583;BME280;32309;48.858;8.252;2023-12-20T03:19:53;100501.41;;;4.74;100.00
46583;BME280;32309;48.858;8.252;2023-12-20T03:21:53;100499.66;;;4.75;100.00
46583;BME280;32309;48.858;8.252;2023-12-20T03:23:53;100498.84;;;4.74;100.00
46583;BME280;32309;48.858;8.252;2023-12-20T03:25:54;100497.09;;;4.75;100.00
46583;BME280;32309;48.858;8.252;2023-12-20T03:27:54;100508.22;;;4.75;100.00
46583;BME280;32309;48.858;8.252;2023-12-20T03:29:54;100503.91;;;4.76;100.00
46583;BME280;32309;48.858;8.252;2023-12-20T03:31:55;100502.22;;;4.75;100.00
46583;BME280;32309;48.858;8.252;2023-12-20T03:33:56;100490.25;;;4.75;100.00
46583;BME280;32309;48.858;8.252;2023-12-20T03:35:56;100487.69;;;4.75;100.00
46583;BME280;32309;48.858;8.252;2023-12-20T03:37:57;100489.38;;;4.75;100.00
46583;BME280;32309;48.858;8.252;2023-12-20T03:40:00;100494.53;;;4.75;100.00
46583;BME280;32309;48.858;8.252;2023-12-20T03:42:00;100493.59;;;4.77;100.00
46583;BME280;32309;48.858;8.252;2023-12-20T03:44:00;100498.78;;;4.76;100.00
46583;BME280;32309;48.858;8.252;2023-12-20T03:46:01;100501.28;;;4.77;100.00
46583;BME280;32309;48.858;8.252;2023-12-20T03:48:03;100497.03;;;4.78;100.00
46583;BME280;32309;48.858;8.252;2023-12-20T03:50:04;100510.69;;;4.78;100.00
46583;BME280;32309;48.858;8.252;2023-12-20T03:52:05;100508.06;;;4.80;100.00
46583;BME280;32309;48.858;8.252;2023-12-20T03:54:05;100510.63;;;4.80;100.00
46583;BME280;32309;48.858;8.252;2023-12-20T03:56:06;100517.47;;;4.81;100.00
46583;BME280;32309;48.858;8.252;2023-12-20T03:58:06;100508.94;;;4.80;100.00
46583;BME280;32309;48.858;8.252;2023-12-20T04:00:07;100510.63;;;4.80;100.00
46583;BME280;32309;48.858;8.252;2023-12-20T04:02:10;100512.31;;;4.81;100.00
46583;BME280;32309;48.858;8.252;2023-12-20T04:04:11;100506.38;;;4.80;100.00
46583;BME280;32309;48.858;8.252;2023-12-20T04:06:16;100510.59;;;4.81;100.00
46583;BME280;32309;48.858;8.252;2023-12-20T04:08:17;100520.84;;;4.81;100.00
46583;BME280;32309;48.858;8.252;2023-12-20T04:10:17;100524.28;;;4.82;100.00
46583;BME280;32309;48.858;8.252;2023-12-20T04:12:17;100516.59;;;4.82;100.00
46583;BME280;32309;48.858;8.252;2023-12-20T04:14:18;100523.41;;;4.83;100.00
46583;BME280;32309;48.858;8.252;2023-12-20T04:16:18;100521.66;;;4.83;100.00
46583;BME280;32309;48.858;8.252;2023-12-20T04:18:18;100519.09;;;4.83;100.00
46583;BME280;32309;48.858;8.252;2023-12-20T04:20:18;100518.22;;;4.85;100.00
46583;BME280;32309;48.858;8.252;2023-12-20T04:22:19;100531.06;;;4.85;100.00
46583;BME280;32309;48.858;8.252;2023-12-20T04:24:19;100519.03;;;4.85;100.00
46583;BME280;32309;48.858;8.252;2023-12-20T04:26:19;100527.59;;;4.86;100.00
46583;BME280;32309;48.858;8.252;2023-12-20T04:28:20;100525.88;;;4.86;100.00
46583;BME280;32309;48.858;8.252;2023-12-20T04:30:20;100525.88;;;4.86;100.00
46583;BME280;32309;48.858;8.252;2023-12-20T04:32:21;100536.16;;;4.86;100.00
46583;BME280;32309;48.858;8.252;2023-12-20T04:34:22;100530.16;;;4.86;100.00
46583;BME280;32309;48.858;8.252;2023-12-20T04:36:22;100537.91;;;4.84;100.00
46583;BME280;32309;48.858;8.252;2023-12-20T04:38:23;100534.47;;;4.85;100.00
46583;BME280;32309;48.858;8.252;2023-12-20T04:40:23;100526.75;;;4.85;100.00
46583;BME280;32309;48.858;8.252;2023-12-20T04:42:23;100546.41;;;4.86;100.00
46583;BME280;32309;48.858;8.252;2023-12-20T04:44:23;100545.56;;;4.86;100.00
46583;BME280;32309;48.858;8.252;2023-12-20T04:46:24;100548.94;;;4.88;100.00
46583;BME280;32309;48.858;8.252;2023-12-20T04:48:24;100535.28;;;4.87;100.00
46583;BME280;32309;48.858;8.252;2023-12-20T04:50:24;100553.19;;;4.89;100.00
46583;BME280;32309;48.858;8.252;2023-12-20T04:52:25;100548.06;;;4.89;100.00
46583;BME280;32309;48.858;8.252;2023-12-20T04:54:26;100532.69;;;4.87;100.00
46583;BME280;32309;48.858;8.252;2023-12-20T04:56:27;100541.22;;;4.88;100.00
46583;BME280;32309;48.858;8.252;2023-12-20T04:58:27;100552.38;;;4.87;100.00
46583;BME280;32309;48.858;8.252;2023-12-20T05:00:28;100562.66;;;4.87;100.00
46583;BME280;32309;48.858;8.252;2023-12-20T05:02:28;100559.22;;;4.88;100.00
46583;BME280;32309;48.858;8.252;2023-12-20T05:04:28;100547.25;;;4.87;100.00
46583;BME280;32309;48.858;8.252;2023-12-20T05:06:29;100549.81;;;4.87;100.00
46583;BME280;32309;48.858;8.252;2023-12-20T05:08:29;100554.91;;;4.88;100.00
46583;BME280;32309;48.858;8.252;2023-12-20T05:10:29;100554.94;;;4.87;100.00
46583;BME280;32309;48.858;8.252;2023-12-20T05:12:30;100566.09;;;4.87;100.00
46583;BME280;32309;48.858;8.252;2023-12-20T05:14:30;100559.25;;;4.86;100.00
46583;BME280;32309;48.858;8.252;2023-12-20T05:16:31;100560.94;;;4.87;100.00
46583;BME280;32309;48.858;8.252;2023-12-20T05:18:31;100568.59;;;4.89;100.00
46583;BME280;32309;48.858;8.252;2023-12-20T05:20:31;100563.47;;;4.89;100.00
46583;BME280;32309;48.858;8.252;2023-12-20T05:22:33;100564.28;;;4.89;100.00
46583;BME280;32309;48.858;8.252;2023-12-20T05:24:33;100566.81;;;4.91;100.00
46583;BME280;32309;48.858;8.252;2023-12-20T05:26:33;100576.22;;;4.92;100.00
46583;BME280;32309;48.858;8.252;2023-12-20T05:28:34;100580.53;;;4.91;100.00
46583;BME280;32309;48.858;8.252;2023-12-20T05:30:34;100570.25;;;4.91;100.00
46583;BME280;32309;48.858;8.252;2023-12-20T05:32:34;100582.22;;;4.91;100.00
46583;BME280;32309;48.858;8.252;2023-12-20T05:34:34;100582.22;;;4.91;100.00
46583;BME280;32309;48.858;8.252;2023-12-20T05:36:35;100582.22;;;4.91;100.00
46583;BME280;32309;48.858;8.252;2023-12-20T05:38:36;100581.41;;;4.90;100.00
46583;BME280;32309;48.858;8.252;2023-12-20T05:40:37;100586.53;;;4.90;100.00
46583;BME280;32309;48.858;8.252;2023-12-20T05:42:37;100595.06;;;4.91;100.00
46583;BME280;32309;48.858;8.252;2023-12-20T05:44:38;100609.59;;;4.92;100.00
46583;BME280;32309;48.858;8.252;2023-12-20T05:46:38;100611.34;;;4.91;100.00
46583;BME280;32309;48.858;8.252;2023-12-20T05:48:40;100595.97;;;4.90;100.00
46583;BME280;32309;48.858;8.252;2023-12-20T05:50:40;100599.38;;;4.90;100.00
46583;BME280;32309;48.858;8.252;2023-12-20T05:52:40;100610.47;;;4.91;100.00
46583;BME280;32309;48.858;8.252;2023-12-20T05:54:41;100601.13;;;4.90;100.00
46583;BME280;32309;48.858;8.252;2023-12-20T05:56:42;100601.06;;;4.91;100.00
46583;BME280;32309;48.858;8.252;2023-12-20T05:58:42;100597.63;;;4.91;100.00
46583;BME280;32309;48.858;8.252;2023-12-20T06:00:43;100603.63;;;4.91;100.00
46583;BME280;32309;48.858;8.252;2023-12-20T06:02:43;100609.59;;;4.92;100.00
46583;BME280;32309;48.858;8.252;2023-12-20T06:04:44;100610.47;;;4.92;100.00
46583;BME280;32309;48.858;8.252;2023-12-20T06:06:45;100611.28;;;4.93;100.00
46583;BME280;32309;48.858;8.252;2023-12-20T06:08:45;100603.59;;;4.93;100.00
46583;BME280;32309;48.858;8.252;2023-12-20T06:10:45;100615.56;;;4.94;100.00
46583;BME280;32309;48.858;8.252;2023-12-20T06:12:45;100615.59;;;4.92;100.00
46583;BME280;32309;48.858;8.252;2023-12-20T06:14:48;100626.72;;;4.93;100.00
46583;BME280;32309;48.858;8.252;2023-12-20T06:16:49;100627.53;;;4.93;100.00
46583;BME280;32309;48.858;8.252;2023-12-20T06:18:49;100640.44;;;4.92;100.00
46583;BME280;32309;48.858;8.252;2023-12-20T06:20:50;100638.72;;;4.92;100.00
46583;BME280;32309;48.858;8.252;2023-12-20T06:22:55;100644.69;;;4.93;100.00
46583;BME280;32309;48.858;8.252;2023-12-20T06:24:55;100649.88;;;4.91;100.00
46583;BME280;32309;48.858;8.252;2023-12-20T06:26:55;100648.13;;;4.92;100.00
46583;BME280;32309;48.858;8.252;2023-12-20T06:28:56;100645.56;;;4.92;100.00
46583;BME280;32309;48.858;8.252;2023-12-20T06:30:56;100652.44;;;4.91;100.00
46583;BME280;32309;48.858;8.252;2023-12-20T06:32:57;100653.28;;;4.92;100.00
46583;BME280;32309;48.858;8.252;2023-12-20T06:34:58;100655.84;;;4.92;100.00
46583;BME280;32309;48.858;8.252;2023-12-20T06:36:58;100669.53;;;4.92;100.00
46583;BME280;32309;48.858;8.252;2023-12-20T06:38:58;100657.53;;;4.93;100.00
46583;BME280;32309;48.858;8.252;2023-12-20T06:41:02;100659.22;;;4.94;100.00
46583;BME280;32309;48.858;8.252;2023-12-20T06:43:02;100656.69;;;4.92;100.00
46583;BME280;32309;48.858;8.252;2023-12-20T06:45:03;100662.66;;;4.93;100.00
46583;BME280;32309;48.858;8.252;2023-12-20T06:47:03;100650.63;;;4.95;100.00
46583;BME280;32309;48.858;8.252;2023-12-20T06:49:04;100645.44;;;4.96;100.00
46583;BME280;32309;48.858;8.252;2023-12-20T06:51:05;100645.50;;;4.95;100.00
46583;BME280;32309;48.858;8.252;2023-12-20T06:53:06;100655.78;;;4.93;100.00
46583;BME280;32309;48.858;8.252;2023-12-20T06:55:07;100659.16;;;4.95;100.00
46583;BME280;32309;48.858;8.252;2023-12-20T06:57:07;100673.75;;;4.95;100.00
46583;BME280;32309;48.858;8.252;2023-12-20T06:59:07;100673.72;;;4.96;100.00
46583;BME280;32309;48.858;8.252;2023-12-20T07:01:11;100677.09;;;4.97;100.00
46583;BME280;32309;48.858;8.252;2023-12-20T07:03:12;100690.00;;;4.95;100.00
46583;BME280;32309;48.858;8.252;2023-12-20T07:05:12;100692.56;;;4.95;100.00
46583;BME280;32309;48.858;8.252;2023-12-20T07:07:16;100702.84;;;4.95;100.00
46583;BME280;32309;48.858;8.252;2023-12-20T07:09:16;100701.16;;;4.94;100.00
46583;BME280;32309;48.858;8.252;2023-12-20T07:11:16;100705.41;;;4.95;100.00
46583;BME280;32309;48.858;8.252;2023-12-20T07:13:17;100709.72;;;4.93;100.00
46583;BME280;32309;48.858;8.252;2023-12-20T07:15:17;100725.19;;;4.92;100.00
46583;BME280;32309;48.858;8.252;2023-12-20T07:17:18;100720.94;;;4.91;100.00
46583;BME280;32309;48.858;8.252;2023-12-20T07:19:18;100729.59;;;4.87;100.00
46583;BME280;32309;48.858;8.252;2023-12-20T07:21:18;100728.81;;;4.85;100.00
46583;BME280;32309;48.858;8.252;2023-12-20T07:23:19;100725.44;;;4.82;100.00
46583;BME280;32309;48.858;8.252;2023-12-20T07:25:20;100724.66;;;4.79;100.00
46583;BME280;32309;48.858;8.252;2023-12-20T07:27:20;100722.16;;;4.77;100.00
46583;BME280;32309;48.858;8.252;2023-12-20T07:29:20;100731.63;;;4.75;100.00
46583;BME280;32309;48.858;8.252;2023-12-20T07:31:21;100738.50;;;4.73;100.00
46583;BME280;32309;48.858;8.252;2023-12-20T07:33:24;100737.75;;;4.70;100.00
46583;BME280;32309;48.858;8.252;2023-12-20T07:35:24;100743.84;;;4.65;100.00
46583;BME280;32309;48.858;8.252;2023-12-20T07:37:25;100741.31;;;4.64;100.00
46583;BME280;32309;48.858;8.252;2023-12-20T07:39:25;100741.44;;;4.59;100.00
46583;BME280;32309;48.858;8.252;2023-12-20T07:41:26;100738.91;;;4.58;100.00
46583;BME280;32309;48.858;8.252;2023-12-20T07:43:28;100745.00;;;4.54;100.00
46583;BME280;32309;48.858;8.252;2023-12-20T07:45:29;100745.91;;;4.51;100.00
46583;BME280;32309;48.858;8.252;2023-12-20T07:47:29;100743.38;;;4.49;100.00
46583;BME280;32309;48.858;8.252;2023-12-20T07:49:32;100740.00;;;4.49;100.00
46583;BME280;32309;48.858;8.252;2023-12-20T07:51:33;100742.66;;;4.44;100.00
46583;BME280;32309;48.858;8.252;2023-12-20T07:53:33;100743.53;;;4.43;100.00
46583;BME280;32309;48.858;8.252;2023-12-20T07:55:34;100739.31;;;4.41;100.00
46583;BME280;32309;48.858;8.252;2023-12-20T07:57:34;100740.22;;;4.40;100.00
46583;BME280;32309;48.858;8.252;2023-12-20T07:59:34;100739.44;;;4.36;100.00
46583;BME280;32309;48.858;8.252;2023-12-20T08:01:35;100754.84;;;4.36;100.00
46583;BME280;32309;48.858;8.252;2023-12-20T08:03:35;100759.97;;;4.36;100.00
46583;BME280;32309;48.858;8.252;2023-12-20T08:05:35;100771.97;;;4.36;100.00
46583;BME280;32309;48.858;8.252;2023-12-20T08:07:36;100777.13;;;4.34;100.00
46583;BME280;32309;48.858;8.252;2023-12-20T08:09:36;100783.16;;;4.33;100.00
46583;BME280;32309;48.858;8.252;2023-12-20T08:11:37;100777.13;;;4.34;100.00
46583;BME280;32309;48.858;8.252;2023-12-20T08:13:37;100780.59;;;4.33;100.00
46583;BME280;32309;48.858;8.252;2023-12-20T08:15:38;100780.69;;;4.28;100.00
46583;BME280;32309;48.858;8.252;2023-12-20T08:17:38;100781.50;;;4.30;100.00
46583;BME280;32309;48.858;8.252;2023-12-20T08:19:38;100782.28;;;4.32;100.00
46583;BME280;32309;48.858;8.252;2023-12-20T08:21:38;100787.38;;;4.34;100.00
46583;BME280;32309;48.858;8.252;2023-12-20T08:23:39;100777.97;;;4.35;100.00
46583;BME280;32309;48.858;8.252;2023-12-20T08:25:39;100786.47;;;4.37;100.00
46583;BME280;32309;48.858;8.252;2023-12-20T08:27:40;100785.59;;;4.38;100.00
46583;BME280;32309;48.858;8.252;2023-12-20T08:29:41;100783.84;;;4.40;100.00
46583;BME280;32309;48.858;8.252;2023-12-20T08:31:46;100781.25;;;4.41;100.00
46583;BME280;32309;48.858;8.252;2023-12-20T08:33:47;100788.91;;;4.43;100.00
46583;BME280;32309;48.858;8.252;2023-12-20T08:35:48;100788.84;;;4.44;100.00
46583;BME280;32309;48.858;8.252;2023-12-20T08:37:48;100791.38;;;4.46;100.00
46583;BME280;32309;48.858;8.252;2023-12-20T08:39:49;100788.81;;;4.47;100.00
46583;BME280;32309;48.858;8.252;2023-12-20T08:41:49;100795.59;;;4.48;100.00
46583;BME280;32309;48.858;8.252;2023-12-20T08:43:52;100806.69;;;4.50;100.00
46583;BME280;32309;48.858;8.252;2023-12-20T08:45:53;100810.03;;;4.53;100.00
46583;BME280;32309;48.858;8.252;2023-12-20T08:47:53;100813.34;;;4.58;100.00
46583;BME280;32309;48.858;8.252;2023-12-20T08:49:53;100815.88;;;4.61;100.00
46583;BME280;32309;48.858;8.252;2023-12-20T08:51:59;100816.59;;;4.64;100.00
46583;BME280;32309;48.858;8.252;2023-12-20T08:53:59;100809.69;;;4.68;100.00
46583;BME280;32309;48.858;8.252;2023-12-20T08:55:59;100813.81;;;4.74;100.00
46583;BME280;32309;48.858;8.252;2023-12-20T08:58:01;100800.03;;;4.78;100.00
46583;BME280;32309;48.858;8.252;2023-12-20T09:00:02;100806.78;;;4.82;100.00
46583;BME280;32309;48.858;8.252;2023-12-20T09:02:05;100812.66;;;4.86;100.00
46583;BME280;32309;48.858;8.252;2023-12-20T09:04:07;100799.81;;;4.86;100.00
46583;BME280;32309;48.858;8.252;2023-12-20T09:06:07;100804.03;;;4.88;100.00
46583;BME280;32309;48.858;8.252;2023-12-20T09:08:07;100800.56;;;4.91;100.00
46583;BME280;32309;48.858;8.252;2023-12-20T09:10:09;100799.69;;;4.92;100.00
46583;BME280;32309;48.858;8.252;2023-12-20T09:12:10;100801.38;;;4.93;100.00
46583;BME280;32309;48.858;8.252;2023-12-20T09:14:10;100805.59;;;4.95;100.00
46583;BME280;32309;48.858;8.252;2023-12-20T09:16:10;100800.47;;;4.95;100.00
46583;BME280;32309;48.858;8.252;2023-12-20T09:18:11;100797.00;;;4.96;100.00
46583;BME280;32309;48.858;8.252;2023-12-20T09:20:11;100792.66;;;4.98;100.00
46583;BME280;32309;48.858;8.252;2023-12-20T09:22:13;100797.78;;;4.98;100.00
46583;BME280;32309;48.858;8.252;2023-12-20T09:24:14;100792.63;;;5.00;100.00
46583;BME280;32309;48.858;8.252;2023-12-20T09:26:15;100794.31;;;5.01;100.00
46583;BME280;32309;48.858;8.252;2023-12-20T09:28:17;100788.28;;;5.02;100.00
46583;BME280;32309;48.858;8.252;2023-12-20T09:30:18;100790.88;;;5.02;100.00
46583;BME280;32309;48.858;8.252;2023-12-20T09:32:19;100786.59;;;5.01;99.78
46583;BME280;32309;48.858;8.252;2023-12-20T09:34:22;100790.03;;;5.02;100.00
46583;BME280;32309;48.858;8.252;2023-12-20T09:36:24;100796.88;;;5.01;99.30
46583;BME280;32309;48.858;8.252;2023-12-20T09:38:24;100790.03;;;5.02;100.00
46583;BME280;32309;48.858;8.252;2023-12-20T09:40:25;100794.25;;;5.04;100.00
46583;BME280;32309;48.858;8.252;2023-12-20T09:45:12;100795.13;;;5.03;99.78
46583;BME280;32309;48.858;8.252;2023-12-20T09:47:14;100794.25;;;5.03;100.00
46583;BME280;32309;48.858;8.252;2023-12-20T09:49:19;100800.25;;;5.03;99.80
46583;BME280;32309;48.858;8.252;2023-12-20T09:51:21;100803.63;;;5.05;100.00
46583;BME280;32309;48.858;8.252;2023-12-20T09:53:21;100808.72;;;5.07;99.18
46583;BME280;32309;48.858;8.252;2023-12-20T09:55:29;100806.13;;;5.07;98.81
46583;BME280;32309;48.858;8.252;2023-12-20T09:57:32;100801.88;;;5.07;98.31
46583;BME280;32309;48.858;8.252;2023-12-20T09:59:33;100807.72;;;5.12;99.32
46583;BME280;32309;48.858;8.252;2023-12-20T10:01:34;100807.72;;;5.12;98.83
46583;BME280;32309;48.858;8.252;2023-12-20T10:03:35;100802.59;;;5.12;99.36
46583;BME280;32309;48.858;8.252;2023-12-20T10:05:40;100797.31;;;5.17;100.00
46583;BME280;32309;48.858;8.252;2023-12-20T10:07:43;100803.31;;;5.18;99.08
46583;BME280;32309;48.858;8.252;2023-12-20T10:09:43;100804.91;;;5.22;99.15
46583;BME280;32309;48.858;8.252;2023-12-20T10:11:44;100796.34;;;5.21;98.40
46583;BME280;32309;48.858;8.252;2023-12-20T10:13:47;100803.13;;;5.24;98.33
46583;BME280;32309;48.858;8.252;2023-12-20T10:15:48;100792.84;;;5.25;98.33
46583;BME280;32309;48.858;8.252;2023-12-20T10:17:49;100789.34;;;5.26;98.76
46583;BME280;32309;48.858;8.252;2023-12-20T10:19:50;100784.19;;;5.28;98.29
46583;BME280;32309;48.858;8.252;2023-12-20T10:21:50;100793.56;;;5.29;97.86
46583;BME280;32309;48.858;8.252;2023-12-20T10:23:50;100797.78;;;5.31;97.41
46583;BME280;32309;48.858;8.252;2023-12-20T10:25:57;100790.94;;;5.32;97.41
46583;BME280;32309;48.858;8.252;2023-12-20T10:28:12;100781.53;;;5.31;96.10
46583;BME280;32309;48.858;8.252;2023-12-20T10:30:13;100772.94;;;5.32;96.02
46583;BME280;32309;48.858;8.252;2023-12-20T10:32:24;100778.19;;;5.27;94.73
46583;BME280;32309;48.858;8.252;2023-12-20T10:34:25;100775.53;;;5.32;94.09